sensor_id;sensor_type;location;lat;lon;timestamp;temperature;humidity
51567;DHT22;37657;53.182;5.638;2022-07-01T00:01:32;15.40;99.90
51567;DHT22;37657;53.182;5.638;2022-07-01T00:03:57;15.70;99.90
51567;DHT22;37657;53.182;5.638;2022-07-01T00:06:24;15.20;99.90
51567;DHT22;37657;53.182;5.638;2022-07-01T00:08:50;15.50;99.90
51567;DHT22;37657;53.182;5.638;2022-07-01T00:11:16;15.20;99.90
51567;DHT22;37657;53.182;5.638;2022-07-01T00:13:41;15.20;99.90
51567;DHT22;37657;53.182;5.638;2022-07-01T00:16:07;15.80;99.90
51567;DHT22;37657;53.182;5.638;2022-07-01T00:18:33;15.20;99.90
51567;DHT22;37657;53.182;5.638;2022-07-01T00:20:58;15.50;99.90
51567;DHT22;37657;53.182;5.638;2022-07-01T00:23:26;15.80;99.90
51567;DHT22;37657;53.182;5.638;2022-07-01T00:25:52;15.70;99.90
51567;DHT22;37657;53.182;5.638;2022-07-01T00:28:18;15.20;99.90
51567;DHT22;37657;53.182;5.638;2022-07-01T00:30:43;15.70;99.90
51567;DHT22;37657;53.182;5.638;2022-07-01T00:33:09;16.00;99.90
51567;DHT22;37657;53.182;5.638;2022-07-01T00:35:34;15.70;99.90
51567;DHT22;37657;53.182;5.638;2022-07-01T00:38:00;15.40;99.90
51567;DHT22;37657;53.182;5.638;2022-07-01T00:40:25;15.80;99.90
51567;DHT22;37657;53.182;5.638;2022-07-01T00:42:51;15.50;99.90
51567;DHT22;37657;53.182;5.638;2022-07-01T00:45:16;15.50;99.90
51567;DHT22;37657;53.182;5.638;2022-07-01T00:47:43;15.90;99.90
51567;DHT22;37657;53.182;5.638;2022-07-01T00:50:12;15.90;99.90
51567;DHT22;37657;53.182;5.638;2022-07-01T00:52:39;15.30;99.90
51567;DHT22;37657;53.182;5.638;2022-07-01T00:55:07;15.30;99.90
51567;DHT22;37657;53.182;5.638;2022-07-01T00:57:34;15.60;99.90
51567;DHT22;37657;53.182;5.638;2022-07-01T01:00:05;15.60;99.90
51567;DHT22;37657;53.182;5.638;2022-07-01T01:02:31;15.60;99.90
51567;DHT22;37657;53.182;5.638;2022-07-01T01:04:56;15.60;99.90
51567;DHT22;37657;53.182;5.638;2022-07-01T01:07:22;15.50;99.90
51567;DHT22;37657;53.182;5.638;2022-07-01T01:09:48;15.70;99.90
51567;DHT22;37657;53.182;5.638;2022-07-01T01:12:14;15.10;99.90
51567;DHT22;37657;53.182;5.638;2022-07-01T01:14:47;15.60;99.90
51567;DHT22;37657;53.182;5.638;2022-07-01T01:17:14;15.60;99.90
51567;DHT22;37657;53.182;5.638;2022-07-01T01:19:43;15.70;99.90
51567;DHT22;37657;53.182;5.638;2022-07-01T01:22:10;15.10;99.90
51567;DHT22;37657;53.182;5.638;2022-07-01T01:24:37;15.10;99.90
51567;DHT22;37657;53.182;5.638;2022-07-01T01:27:06;15.10;99.90
51567;DHT22;37657;53.182;5.638;2022-07-01T01:29:32;15.50;99.90
51567;DHT22;37657;53.182;5.638;2022-07-01T01:32:00;15.10;99.90
51567;DHT22;37657;53.182;5.638;2022-07-01T01:34:26;15.60;99.90
51567;DHT22;37657;53.182;5.638;2022-07-01T01:36:51;15.70;99.90
51567;DHT22;37657;53.182;5.638;2022-07-01T01:39:18;15.60;99.90
51567;DHT22;37657;53.182;5.638;2022-07-01T01:41:44;15.50;99.90
51567;DHT22;37657;53.182;5.638;2022-07-01T01:44:10;15.30;99.90
51567;DHT22;37657;53.182;5.638;2022-07-01T01:46:36;15.00;99.90
51567;DHT22;37657;53.182;5.638;2022-07-01T01:49:03;14.90;99.90
51567;DHT22;37657;53.182;5.638;2022-07-01T01:51:29;15.30;99.90
51567;DHT22;37657;53.182;5.638;2022-07-01T01:53:55;14.90;99.90
51567;DHT22;37657;53.182;5.638;2022-07-01T01:56:21;14.90;99.90
51567;DHT22;37657;53.182;5.638;2022-07-01T01:58:47;15.00;99.90
51567;DHT22;37657;53.182;5.638;2022-07-01T02:01:13;14.90;99.90
51567;DHT22;37657;53.182;5.638;2022-07-01T02:03:40;14.70;99.90
51567;DHT22;37657;53.182;5.638;2022-07-01T02:06:07;14.90;99.90
51567;DHT22;37657;53.182;5.638;2022-07-01T02:08:35;14.90;99.90
51567;DHT22;37657;53.182;5.638;2022-07-01T02:11:00;14.70;99.90
51567;DHT22;37657;53.182;5.638;2022-07-01T02:13:27;15.00;99.90
51567;DHT22;37657;53.182;5.638;2022-07-01T02:15:53;14.60;99.90
51567;DHT22;37657;53.182;5.638;2022-07-01T02:18:18;14.50;99.90
51567;DHT22;37657;53.182;5.638;2022-07-01T02:20:44;14.90;99.90
51567;DHT22;37657;53.182;5.638;2022-07-01T02:23:09;15.00;99.90
51567;DHT22;37657;53.182;5.638;2022-07-01T02:25:35;14.80;99.90
51567;DHT22;37657;53.182;5.638;2022-07-01T02:28:02;15.00;99.90
51567;DHT22;37657;53.182;5.638;2022-07-01T02:30:28;15.00;99.90
51567;DHT22;37657;53.182;5.638;2022-07-01T02:32:54;15.10;99.90
51567;DHT22;37657;53.182;5.638;2022-07-01T02:35:20;15.10;99.90
51567;DHT22;37657;53.182;5.638;2022-07-01T02:37:45;15.10;99.90
51567;DHT22;37657;53.182;5.638;2022-07-01T02:40:11;15.10;99.90
51567;DHT22;37657;53.182;5.638;2022-07-01T02:42:39;15.20;99.90
51567;DHT22;37657;53.182;5.638;2022-07-01T02:45:05;15.60;99.90
51567;DHT22;37657;53.182;5.638;2022-07-01T02:47:33;15.20;99.90
51567;DHT22;37657;53.182;5.638;2022-07-01T02:49:59;15.40;99.90
51567;DHT22;37657;53.182;5.638;2022-07-01T02:52:24;15.20;99.90
51567;DHT22;37657;53.182;5.638;2022-07-01T02:54:50;15.50;99.90
51567;DHT22;37657;53.182;5.638;2022-07-01T02:57:15;15.70;99.90
51567;DHT22;37657;53.182;5.638;2022-07-01T02:59:41;15.40;99.90
51567;DHT22;37657;53.182;5.638;2022-07-01T03:02:06;15.50;99.90
51567;DHT22;37657;53.182;5.638;2022-07-01T03:04:32;16.00;99.90
51567;DHT22;37657;53.182;5.638;2022-07-01T03:06:58;16.10;99.90
51567;DHT22;37657;53.182;5.638;2022-07-01T03:09:23;15.90;99.90
51567;DHT22;37657;53.182;5.638;2022-07-01T03:11:49;16.20;99.90
51567;DHT22;37657;53.182;5.638;2022-07-01T03:14:15;16.20;99.90
51567;DHT22;37657;53.182;5.638;2022-07-01T03:16:40;16.20;99.90
51567;DHT22;37657;53.182;5.638;2022-07-01T03:19:06;16.20;99.90
51567;DHT22;37657;53.182;5.638;2022-07-01T03:21:32;15.90;99.90
51567;DHT22;37657;53.182;5.638;2022-07-01T03:23:58;16.10;99.90
51567;DHT22;37657;53.182;5.638;2022-07-01T03:26:24;15.90;99.90
51567;DHT22;37657;53.182;5.638;2022-07-01T03:28:49;15.80;99.90
51567;DHT22;37657;53.182;5.638;2022-07-01T03:31:15;15.70;99.90
51567;DHT22;37657;53.182;5.638;2022-07-01T03:33:41;16.10;99.90
51567;DHT22;37657;53.182;5.638;2022-07-01T03:36:06;16.20;99.90
51567;DHT22;37657;53.182;5.638;2022-07-01T03:38:32;16.20;99.90
51567;DHT22;37657;53.182;5.638;2022-07-01T03:40:57;16.20;99.90
51567;DHT22;37657;53.182;5.638;2022-07-01T03:43:23;16.30;99.90
51567;DHT22;37657;53.182;5.638;2022-07-01T03:45:48;16.30;99.90
51567;DHT22;37657;53.182;5.638;2022-07-01T03:48:14;16.10;99.90
51567;DHT22;37657;53.182;5.638;2022-07-01T03:50:41;16.20;99.90
51567;DHT22;37657;53.182;5.638;2022-07-01T03:53:07;16.00;99.90
51567;DHT22;37657;53.182;5.638;2022-07-01T03:55:51;16.00;99.90
51567;DHT22;37657;53.182;5.638;2022-07-01T03:58:16;15.80;99.90
51567;DHT22;37657;53.182;5.638;2022-07-01T04:00:42;15.70;99.90
51567;DHT22;37657;53.182;5.638;2022-07-01T04:03:08;15.60;99.90
51567;DHT22;37657;53.182;5.638;2022-07-01T04:05:35;15.80;99.90
51567;DHT22;37657;53.182;5.638;2022-07-01T04:08:06;15.90;99.90
51567;DHT22;37657;53.182;5.638;2022-07-01T04:10:33;16.10;99.90
51567;DHT22;37657;53.182;5.638;2022-07-01T04:13:02;16.10;99.90
51567;DHT22;37657;53.182;5.638;2022-07-01T04:15:28;16.10;99.90
51567;DHT22;37657;53.182;5.638;2022-07-01T04:17:54;16.30;99.90
51567;DHT22;37657;53.182;5.638;2022-07-01T04:20:20;16.40;99.90
51567;DHT22;37657;53.182;5.638;2022-07-01T04:22:45;16.40;99.90
51567;DHT22;37657;53.182;5.638;2022-07-01T04:25:11;16.20;99.90
51567;DHT22;37657;53.182;5.638;2022-07-01T04:27:37;16.30;99.90
51567;DHT22;37657;53.182;5.638;2022-07-01T04:30:03;16.20;99.90
51567;DHT22;37657;53.182;5.638;2022-07-01T04:32:29;16.30;99.90
51567;DHT22;37657;53.182;5.638;2022-07-01T04:34:56;16.40;99.90
51567;DHT22;37657;53.182;5.638;2022-07-01T04:37:21;16.40;99.90
51567;DHT22;37657;53.182;5.638;2022-07-01T04:39:47;16.50;99.90
51567;DHT22;37657;53.182;5.638;2022-07-01T04:42:12;16.50;99.90
51567;DHT22;37657;53.182;5.638;2022-07-01T04:44:40;16.60;99.90
51567;DHT22;37657;53.182;5.638;2022-07-01T04:47:06;16.60;99.90
51567;DHT22;37657;53.182;5.638;2022-07-01T04:49:32;16.70;99.90
51567;DHT22;37657;53.182;5.638;2022-07-01T04:51:59;16.60;99.90
51567;DHT22;37657;53.182;5.638;2022-07-01T04:54:24;16.60;99.90
51567;DHT22;37657;53.182;5.638;2022-07-01T04:56:53;16.70;99.90
51567;DHT22;37657;53.182;5.638;2022-07-01T04:59:19;16.80;99.90
51567;DHT22;37657;53.182;5.638;2022-07-01T05:01:45;16.80;99.90
51567;DHT22;37657;53.182;5.638;2022-07-01T05:04:14;16.70;99.90
51567;DHT22;37657;53.182;5.638;2022-07-01T05:06:40;16.60;99.90
51567;DHT22;37657;53.182;5.638;2022-07-01T05:09:06;16.60;99.90
51567;DHT22;37657;53.182;5.638;2022-07-01T05:11:32;16.60;99.90
51567;DHT22;37657;53.182;5.638;2022-07-01T05:13:57;16.70;99.90
51567;DHT22;37657;53.182;5.638;2022-07-01T05:16:23;16.60;99.90
51567;DHT22;37657;53.182;5.638;2022-07-01T05:18:49;16.60;99.90
51567;DHT22;37657;53.182;5.638;2022-07-01T05:21:33;16.80;99.90
51567;DHT22;37657;53.182;5.638;2022-07-01T05:24:17;16.80;99.90
51567;DHT22;37657;53.182;5.638;2022-07-01T05:26:42;16.90;99.90
51567;DHT22;37657;53.182;5.638;2022-07-01T05:29:08;16.80;99.90
51567;DHT22;37657;53.182;5.638;2022-07-01T05:31:34;16.90;99.90
51567;DHT22;37657;53.182;5.638;2022-07-01T05:34:00;16.90;99.90
51567;DHT22;37657;53.182;5.638;2022-07-01T05:36:26;17.10;99.90
51567;DHT22;37657;53.182;5.638;2022-07-01T05:38:52;17.10;99.90
51567;DHT22;37657;53.182;5.638;2022-07-01T05:41:17;17.10;99.90
51567;DHT22;37657;53.182;5.638;2022-07-01T05:43:44;17.20;99.90
51567;DHT22;37657;53.182;5.638;2022-07-01T05:46:09;17.10;99.90
51567;DHT22;37657;53.182;5.638;2022-07-01T05:48:35;17.20;99.90
51567;DHT22;37657;53.182;5.638;2022-07-01T05:51:00;17.20;99.90
51567;DHT22;37657;53.182;5.638;2022-07-01T05:53:26;17.20;99.90
51567;DHT22;37657;53.182;5.638;2022-07-01T05:55:52;17.30;99.90
51567;DHT22;37657;53.182;5.638;2022-07-01T05:58:17;17.30;99.90
51567;DHT22;37657;53.182;5.638;2022-07-01T06:00:43;17.30;99.90
51567;DHT22;37657;53.182;5.638;2022-07-01T06:03:13;17.40;99.90
51567;DHT22;37657;53.182;5.638;2022-07-01T06:05:40;17.40;99.90
51567;DHT22;37657;53.182;5.638;2022-07-01T06:08:06;17.40;99.90
51567;DHT22;37657;53.182;5.638;2022-07-01T06:10:32;17.40;99.90
51567;DHT22;37657;53.182;5.638;2022-07-01T06:12:58;17.30;99.90
51567;DHT22;37657;53.182;5.638;2022-07-01T06:15:24;17.40;99.90
51567;DHT22;37657;53.182;5.638;2022-07-01T06:17:50;17.40;99.90
51567;DHT22;37657;53.182;5.638;2022-07-01T06:20:17;17.50;99.90
51567;DHT22;37657;53.182;5.638;2022-07-01T06:22:43;17.40;99.90
51567;DHT22;37657;53.182;5.638;2022-07-01T06:25:09;17.60;99.90
51567;DHT22;37657;53.182;5.638;2022-07-01T06:27:42;17.60;99.90
51567;DHT22;37657;53.182;5.638;2022-07-01T06:30:09;17.60;99.90
51567;DHT22;37657;53.182;5.638;2022-07-01T06:32:35;17.60;99.90
51567;DHT22;37657;53.182;5.638;2022-07-01T06:35:01;17.70;99.90
51567;DHT22;37657;53.182;5.638;2022-07-01T06:37:27;17.70;99.90
51567;DHT22;37657;53.182;5.638;2022-07-01T06:39:52;17.60;99.90
51567;DHT22;37657;53.182;5.638;2022-07-01T06:42:18;17.70;99.90
51567;DHT22;37657;53.182;5.638;2022-07-01T06:44:44;17.60;99.90
51567;DHT22;37657;53.182;5.638;2022-07-01T06:47:09;17.70;99.90
51567;DHT22;37657;53.182;5.638;2022-07-01T06:49:35;17.80;99.90
51567;DHT22;37657;53.182;5.638;2022-07-01T06:52:01;17.80;99.90
51567;DHT22;37657;53.182;5.638;2022-07-01T06:54:26;17.80;99.90
51567;DHT22;37657;53.182;5.638;2022-07-01T06:56:54;17.80;99.90
51567;DHT22;37657;53.182;5.638;2022-07-01T06:59:20;17.80;99.90
51567;DHT22;37657;53.182;5.638;2022-07-01T07:01:45;17.90;99.90
51567;DHT22;37657;53.182;5.638;2022-07-01T07:04:11;17.90;99.90
51567;DHT22;37657;53.182;5.638;2022-07-01T07:06:36;18.00;99.90
51567;DHT22;37657;53.182;5.638;2022-07-01T07:09:02;17.90;99.90
51567;DHT22;37657;53.182;5.638;2022-07-01T07:11:28;18.00;99.90
51567;DHT22;37657;53.182;5.638;2022-07-01T07:13:53;18.00;99.90
51567;DHT22;37657;53.182;5.638;2022-07-01T07:16:19;18.20;99.90
51567;DHT22;37657;53.182;5.638;2022-07-01T07:18:49;18.20;99.90
51567;DHT22;37657;53.182;5.638;2022-07-01T07:21:15;18.30;99.90
51567;DHT22;37657;53.182;5.638;2022-07-01T07:23:41;18.30;99.90
51567;DHT22;37657;53.182;5.638;2022-07-01T07:26:07;18.40;99.90
51567;DHT22;37657;53.182;5.638;2022-07-01T07:28:33;18.40;99.90
51567;DHT22;37657;53.182;5.638;2022-07-01T07:30:59;18.50;99.90
51567;DHT22;37657;53.182;5.638;2022-07-01T07:33:24;18.50;99.90
51567;DHT22;37657;53.182;5.638;2022-07-01T07:35:50;18.50;99.90
51567;DHT22;37657;53.182;5.638;2022-07-01T07:38:15;18.60;99.90
51567;DHT22;37657;53.182;5.638;2022-07-01T07:40:41;18.60;99.90
51567;DHT22;37657;53.182;5.638;2022-07-01T07:43:07;18.70;99.90
51567;DHT22;37657;53.182;5.638;2022-07-01T07:45:33;18.70;99.90
51567;DHT22;37657;53.182;5.638;2022-07-01T07:47:59;18.80;99.90
51567;DHT22;37657;53.182;5.638;2022-07-01T07:50:26;18.70;99.90
51567;DHT22;37657;53.182;5.638;2022-07-01T07:52:52;18.80;99.90
51567;DHT22;37657;53.182;5.638;2022-07-01T07:55:17;18.70;99.90
51567;DHT22;37657;53.182;5.638;2022-07-01T07:57:43;18.80;99.90
51567;DHT22;37657;53.182;5.638;2022-07-01T08:00:11;18.90;99.90
51567;DHT22;37657;53.182;5.638;2022-07-01T08:02:38;19.00;99.90
51567;DHT22;37657;53.182;5.638;2022-07-01T08:05:04;19.10;99.90
51567;DHT22;37657;53.182;5.638;2022-07-01T08:07:38;19.10;99.90
51567;DHT22;37657;53.182;5.638;2022-07-01T08:10:06;19.10;99.90
51567;DHT22;37657;53.182;5.638;2022-07-01T08:12:32;19.10;99.90
51567;DHT22;37657;53.182;5.638;2022-07-01T08:14:58;19.10;99.90
51567;DHT22;37657;53.182;5.638;2022-07-01T08:17:23;19.10;99.90
51567;DHT22;37657;53.182;5.638;2022-07-01T08:19:49;19.20;99.90
51567;DHT22;37657;53.182;5.638;2022-07-01T08:22:15;19.20;99.90
51567;DHT22;37657;53.182;5.638;2022-07-01T08:24:41;19.30;99.90
51567;DHT22;37657;53.182;5.638;2022-07-01T08:27:06;19.30;99.90
51567;DHT22;37657;53.182;5.638;2022-07-01T08:29:32;19.30;99.90
51567;DHT22;37657;53.182;5.638;2022-07-01T08:31:58;19.40;99.90
51567;DHT22;37657;53.182;5.638;2022-07-01T08:34:23;19.50;99.90
51567;DHT22;37657;53.182;5.638;2022-07-01T08:36:49;19.50;99.90
51567;DHT22;37657;53.182;5.638;2022-07-01T08:39:14;19.40;99.90
51567;DHT22;37657;53.182;5.638;2022-07-01T08:41:41;19.30;99.90
51567;DHT22;37657;53.182;5.638;2022-07-01T08:44:07;19.20;99.90
51567;DHT22;37657;53.182;5.638;2022-07-01T08:46:34;19.30;99.90
51567;DHT22;37657;53.182;5.638;2022-07-01T08:49:00;19.30;99.90
51567;DHT22;37657;53.182;5.638;2022-07-01T08:51:26;19.20;99.90
51567;DHT22;37657;53.182;5.638;2022-07-01T08:53:52;19.20;99.90
51567;DHT22;37657;53.182;5.638;2022-07-01T08:56:17;19.00;99.90
51567;DHT22;37657;53.182;5.638;2022-07-01T08:59:02;19.00;99.90
51567;DHT22;37657;53.182;5.638;2022-07-01T09:01:27;19.00;99.90
51567;DHT22;37657;53.182;5.638;2022-07-01T09:03:55;19.10;99.90
51567;DHT22;37657;53.182;5.638;2022-07-01T09:06:28;19.20;99.90
51567;DHT22;37657;53.182;5.638;2022-07-01T09:08:54;19.30;99.90
51567;DHT22;37657;53.182;5.638;2022-07-01T09:11:22;19.30;99.90
51567;DHT22;37657;53.182;5.638;2022-07-01T09:14:07;19.30;99.90
51567;DHT22;37657;53.182;5.638;2022-07-01T09:16:47;19.20;99.90
51567;DHT22;37657;53.182;5.638;2022-07-01T09:19:18;19.30;99.90
51567;DHT22;37657;53.182;5.638;2022-07-01T09:21:49;19.30;99.90
51567;DHT22;37657;53.182;5.638;2022-07-01T09:27:04;19.60;99.90
51567;DHT22;37657;53.182;5.638;2022-07-01T09:29:36;19.70;99.90
51567;DHT22;37657;53.182;5.638;2022-07-01T09:32:04;19.80;99.90
51567;DHT22;37657;53.182;5.638;2022-07-01T09:34:53;19.70;99.90
51567;DHT22;37657;53.182;5.638;2022-07-01T09:37:20;19.50;99.90
51567;DHT22;37657;53.182;5.638;2022-07-01T09:39:53;19.60;99.90
51567;DHT22;37657;53.182;5.638;2022-07-01T09:42:21;19.60;99.90
51567;DHT22;37657;53.182;5.638;2022-07-01T09:45:02;19.50;99.90
51567;DHT22;37657;53.182;5.638;2022-07-01T09:47:31;19.30;99.90
51567;DHT22;37657;53.182;5.638;2022-07-01T09:49:57;19.20;99.90
51567;DHT22;37657;53.182;5.638;2022-07-01T09:52:24;19.20;99.90
51567;DHT22;37657;53.182;5.638;2022-07-01T09:54:50;19.00;99.90
51567;DHT22;37657;53.182;5.638;2022-07-01T09:57:18;19.00;99.90
51567;DHT22;37657;53.182;5.638;2022-07-01T09:59:44;18.80;99.90
51567;DHT22;37657;53.182;5.638;2022-07-01T10:02:11;18.80;99.90
51567;DHT22;37657;53.182;5.638;2022-07-01T10:04:38;18.80;99.90
51567;DHT22;37657;53.182;5.638;2022-07-01T10:09:56;18.80;99.90
51567;DHT22;37657;53.182;5.638;2022-07-01T10:12:36;18.70;99.90
51567;DHT22;37657;53.182;5.638;2022-07-01T10:15:05;18.70;99.90
51567;DHT22;37657;53.182;5.638;2022-07-01T10:17:45;18.70;99.90
51567;DHT22;37657;53.182;5.638;2022-07-01T10:22:40;18.80;99.90
51567;DHT22;37657;53.182;5.638;2022-07-01T10:28:22;19.30;99.90
51567;DHT22;37657;53.182;5.638;2022-07-01T10:31:04;19.60;99.90
51567;DHT22;37657;53.182;5.638;2022-07-01T10:33:31;19.80;99.90
51567;DHT22;37657;53.182;5.638;2022-07-01T10:36:09;19.90;99.90
51567;DHT22;37657;53.182;5.638;2022-07-01T10:41:28;19.90;99.90
51567;DHT22;37657;53.182;5.638;2022-07-01T10:43:55;19.90;99.90
51567;DHT22;37657;53.182;5.638;2022-07-01T10:46:41;19.80;99.90
51567;DHT22;37657;53.182;5.638;2022-07-01T10:49:16;19.70;99.90
51567;DHT22;37657;53.182;5.638;2022-07-01T10:51:52;19.80;99.90
51567;DHT22;37657;53.182;5.638;2022-07-01T10:57:22;19.90;99.90
51567;DHT22;37657;53.182;5.638;2022-07-01T10:59:52;19.90;99.90
51567;DHT22;37657;53.182;5.638;2022-07-01T11:02:28;20.20;99.90
51567;DHT22;37657;53.182;5.638;2022-07-01T11:05:11;20.40;99.90
51567;DHT22;37657;53.182;5.638;2022-07-01T11:07:42;20.60;99.90
51567;DHT22;37657;53.182;5.638;2022-07-01T11:10:10;20.60;99.90
51567;DHT22;37657;53.182;5.638;2022-07-01T11:12:36;20.50;99.90
51567;DHT22;37657;53.182;5.638;2022-07-01T11:15:04;20.50;99.90
51567;DHT22;37657;53.182;5.638;2022-07-01T11:17:35;20.50;99.90
51567;DHT22;37657;53.182;5.638;2022-07-01T11:20:01;20.40;99.90
51567;DHT22;37657;53.182;5.638;2022-07-01T11:22:34;20.20;99.90
51567;DHT22;37657;53.182;5.638;2022-07-01T11:25:10;20.00;99.90
51567;DHT22;37657;53.182;5.638;2022-07-01T11:27:37;20.00;99.90
51567;DHT22;37657;53.182;5.638;2022-07-01T11:30:10;19.90;99.90
51567;DHT22;37657;53.182;5.638;2022-07-01T11:32:56;19.90;99.90
51567;DHT22;37657;53.182;5.638;2022-07-01T11:35:26;19.80;99.90
51567;DHT22;37657;53.182;5.638;2022-07-01T11:38:11;19.80;99.90
51567;DHT22;37657;53.182;5.638;2022-07-01T11:40:57;20.10;99.90
51567;DHT22;37657;53.182;5.638;2022-07-01T11:43:26;20.40;99.90
51567;DHT22;37657;53.182;5.638;2022-07-01T11:45:52;20.40;99.90
51567;DHT22;37657;53.182;5.638;2022-07-01T11:48:42;20.40;99.90
51567;DHT22;37657;53.182;5.638;2022-07-01T11:51:10;20.30;99.90
51567;DHT22;37657;53.182;5.638;2022-07-01T11:53:37;20.40;99.90
51567;DHT22;37657;53.182;5.638;2022-07-01T11:56:05;20.50;99.90
51567;DHT22;37657;53.182;5.638;2022-07-01T11:58:41;20.60;99.90
51567;DHT22;37657;53.182;5.638;2022-07-01T12:01:07;20.80;99.90
51567;DHT22;37657;53.182;5.638;2022-07-01T12:03:33;20.90;99.90
51567;DHT22;37657;53.182;5.638;2022-07-01T12:05:59;21.00;99.90
51567;DHT22;37657;53.182;5.638;2022-07-01T12:08:26;21.10;99.90
51567;DHT22;37657;53.182;5.638;2022-07-01T12:10:52;21.10;99.90
51567;DHT22;37657;53.182;5.638;2022-07-01T12:13:25;21.20;99.90
51567;DHT22;37657;53.182;5.638;2022-07-01T12:15:52;21.30;99.90
51567;DHT22;37657;53.182;5.638;2022-07-01T12:18:18;21.40;99.90
51567;DHT22;37657;53.182;5.638;2022-07-01T12:20:53;21.20;99.90
51567;DHT22;37657;53.182;5.638;2022-07-01T12:23:18;21.30;99.90
51567;DHT22;37657;53.182;5.638;2022-07-01T12:25:48;21.30;99.90
51567;DHT22;37657;53.182;5.638;2022-07-01T12:28:47;21.40;99.90
51567;DHT22;37657;53.182;5.638;2022-07-01T12:31:12;21.50;99.90
51567;DHT22;37657;53.182;5.638;2022-07-01T12:33:39;21.60;99.90
51567;DHT22;37657;53.182;5.638;2022-07-01T12:36:13;21.70;99.90
51567;DHT22;37657;53.182;5.638;2022-07-01T12:38:41;21.80;99.90
51567;DHT22;37657;53.182;5.638;2022-07-01T12:41:26;21.60;99.90
51567;DHT22;37657;53.182;5.638;2022-07-01T12:43:52;21.60;99.90
51567;DHT22;37657;53.182;5.638;2022-07-01T12:46:28;21.40;99.90
51567;DHT22;37657;53.182;5.638;2022-07-01T12:48:54;21.10;99.90
51567;DHT22;37657;53.182;5.638;2022-07-01T12:51:20;21.10;99.90
51567;DHT22;37657;53.182;5.638;2022-07-01T12:53:45;21.00;99.90
51567;DHT22;37657;53.182;5.638;2022-07-01T12:56:22;21.20;99.90
51567;DHT22;37657;53.182;5.638;2022-07-01T12:58:48;21.60;99.90
51567;DHT22;37657;53.182;5.638;2022-07-01T13:01:14;21.60;99.90
51567;DHT22;37657;53.182;5.638;2022-07-01T13:03:40;21.40;99.90
51567;DHT22;37657;53.182;5.638;2022-07-01T13:06:06;21.30;99.90
51567;DHT22;37657;53.182;5.638;2022-07-01T13:08:31;21.20;99.90
51567;DHT22;37657;53.182;5.638;2022-07-01T13:10:57;21.10;99.90
51567;DHT22;37657;53.182;5.638;2022-07-01T13:13:23;21.00;99.90
51567;DHT22;37657;53.182;5.638;2022-07-01T13:15:48;20.80;99.90
51567;DHT22;37657;53.182;5.638;2022-07-01T13:18:14;20.70;99.90
51567;DHT22;37657;53.182;5.638;2022-07-01T13:20:41;20.90;99.90
51567;DHT22;37657;53.182;5.638;2022-07-01T13:23:07;21.00;99.90
51567;DHT22;37657;53.182;5.638;2022-07-01T13:25:32;21.10;99.90
51567;DHT22;37657;53.182;5.638;2022-07-01T13:27:58;21.30;99.90
51567;DHT22;37657;53.182;5.638;2022-07-01T13:30:24;21.30;99.90
51567;DHT22;37657;53.182;5.638;2022-07-01T13:32:50;21.30;99.90
51567;DHT22;37657;53.182;5.638;2022-07-01T13:35:19;21.30;99.90
51567;DHT22;37657;53.182;5.638;2022-07-01T13:37:45;21.40;99.90
51567;DHT22;37657;53.182;5.638;2022-07-01T13:40:11;21.30;99.90
51567;DHT22;37657;53.182;5.638;2022-07-01T13:42:37;21.30;99.90
51567;DHT22;37657;53.182;5.638;2022-07-01T13:45:03;21.40;99.90
51567;DHT22;37657;53.182;5.638;2022-07-01T13:47:29;21.70;99.90
51567;DHT22;37657;53.182;5.638;2022-07-01T13:49:55;21.80;99.90
51567;DHT22;37657;53.182;5.638;2022-07-01T13:52:21;22.00;99.90
51567;DHT22;37657;53.182;5.638;2022-07-01T13:54:46;21.90;99.90
51567;DHT22;37657;53.182;5.638;2022-07-01T13:57:12;21.80;99.90
51567;DHT22;37657;53.182;5.638;2022-07-01T13:59:38;21.90;99.90
51567;DHT22;37657;53.182;5.638;2022-07-01T14:02:03;22.00;99.90
51567;DHT22;37657;53.182;5.638;2022-07-01T14:04:30;21.90;99.90
51567;DHT22;37657;53.182;5.638;2022-07-01T14:06:56;22.00;99.90
51567;DHT22;37657;53.182;5.638;2022-07-01T14:09:22;22.10;99.90
51567;DHT22;37657;53.182;5.638;2022-07-01T14:11:47;21.90;99.90
51567;DHT22;37657;53.182;5.638;2022-07-01T14:14:13;22.20;99.90
51567;DHT22;37657;53.182;5.638;2022-07-01T14:16:39;22.10;99.90
51567;DHT22;37657;53.182;5.638;2022-07-01T14:19:04;22.10;99.90
51567;DHT22;37657;53.182;5.638;2022-07-01T14:21:30;22.20;99.90
51567;DHT22;37657;53.182;5.638;2022-07-01T14:23:56;21.90;99.90
51567;DHT22;37657;53.182;5.638;2022-07-01T14:26:21;21.70;99.90
51567;DHT22;37657;53.182;5.638;2022-07-01T14:28:47;21.60;99.90
51567;DHT22;37657;53.182;5.638;2022-07-01T14:31:12;21.60;99.90
51567;DHT22;37657;53.182;5.638;2022-07-01T14:33:38;21.90;99.90
51567;DHT22;37657;53.182;5.638;2022-07-01T14:36:04;21.70;99.90
51567;DHT22;37657;53.182;5.638;2022-07-01T14:38:29;21.70;99.90
51567;DHT22;37657;53.182;5.638;2022-07-01T14:40:55;21.70;99.90
51567;DHT22;37657;53.182;5.638;2022-07-01T14:43:21;21.70;99.90
51567;DHT22;37657;53.182;5.638;2022-07-01T14:45:46;21.70;99.90
51567;DHT22;37657;53.182;5.638;2022-07-01T14:48:12;21.70;99.90
51567;DHT22;37657;53.182;5.638;2022-07-01T14:50:40;21.80;99.90
51567;DHT22;37657;53.182;5.638;2022-07-01T14:53:06;21.90;99.90
51567;DHT22;37657;53.182;5.638;2022-07-01T14:55:33;22.00;99.90
51567;DHT22;37657;53.182;5.638;2022-07-01T14:57:59;22.00;99.90
51567;DHT22;37657;53.182;5.638;2022-07-01T15:00:25;22.10;99.90
51567;DHT22;37657;53.182;5.638;2022-07-01T15:02:51;22.10;99.90
51567;DHT22;37657;53.182;5.638;2022-07-01T15:05:16;22.20;99.90
51567;DHT22;37657;53.182;5.638;2022-07-01T15:07:42;22.00;99.90
51567;DHT22;37657;53.182;5.638;2022-07-01T15:10:09;21.90;99.90
51567;DHT22;37657;53.182;5.638;2022-07-01T15:12:35;21.90;99.90
51567;DHT22;37657;53.182;5.638;2022-07-01T15:15:00;21.70;99.90
51567;DHT22;37657;53.182;5.638;2022-07-01T15:17:27;21.60;99.90
51567;DHT22;37657;53.182;5.638;2022-07-01T15:19:53;21.50;99.90
51567;DHT22;37657;53.182;5.638;2022-07-01T15:22:18;21.60;99.90
51567;DHT22;37657;53.182;5.638;2022-07-01T15:24:44;21.70;99.90
51567;DHT22;37657;53.182;5.638;2022-07-01T15:27:10;21.70;99.90
51567;DHT22;37657;53.182;5.638;2022-07-01T15:29:37;21.70;99.90
51567;DHT22;37657;53.182;5.638;2022-07-01T15:32:03;21.70;99.90
51567;DHT22;37657;53.182;5.638;2022-07-01T15:34:28;21.80;99.90
51567;DHT22;37657;53.182;5.638;2022-07-01T15:36:54;21.70;99.90
51567;DHT22;37657;53.182;5.638;2022-07-01T15:39:20;21.40;99.90
51567;DHT22;37657;53.182;5.638;2022-07-01T15:41:46;21.30;99.90
51567;DHT22;37657;53.182;5.638;2022-07-01T15:44:12;21.30;99.90
51567;DHT22;37657;53.182;5.638;2022-07-01T15:46:38;21.30;99.90
51567;DHT22;37657;53.182;5.638;2022-07-01T15:49:04;20.90;99.90